Cajamarca, Peru
Current Conditions -  °F | °C
As of 6:00 PM on Sunday 23 Nov 2014 (Local Time) from SPJR Reporting Station
Clear Clear  
Wind Chill: 64°   Ceiling: Unl
Heat Index: 64°   Visibility: 6mi
Dew Point: 45°   Wind: 3mph
Humidity: 49%   Direction: 110°ESE
Pressure: 30.21"   Gusts: NA
Location:  7.16°S, 78.52°W
Report Text: SPJR 232300Z 11003KT CAVOK 18/07 Q1023 RMK BIRD HAZARD RWY 16/34 PP000
Loading
Personal Weather Stations






























Interactive Weather Map New forecast layout! Learn more

10-Day Weather Forecast

Advertisements
Track Severe Weather on mobile